createdAt,value
2022-11-09T00:00:45.031Z,18.40
2022-11-09T00:03:12.844Z,18.48
2022-11-09T00:05:40.650Z,18.42
2022-11-09T00:08:10.339Z,18.05
2022-11-09T00:10:38.981Z,16.77
2022-11-09T00:13:06.478Z,14.02
2022-11-09T00:15:33.817Z,15.93
2022-11-09T00:18:03.054Z,19.10
2022-11-09T00:20:30.480Z,14.10
2022-11-09T00:22:57.912Z,14.90
2022-11-09T00:25:25.570Z,14.32
2022-11-09T00:27:53.214Z,15.40
2022-11-09T00:30:20.875Z,13.93
2022-11-09T00:32:48.533Z,12.88
2022-11-09T00:35:16.144Z,14.50
2022-11-09T00:37:43.526Z,12.18
2022-11-09T00:40:13.190Z,13.52
2022-11-09T00:42:40.564Z,12.52
2022-11-09T00:45:08.429Z,11.70
2022-11-09T00:47:35.889Z,16.15
2022-11-09T00:50:04.936Z,13.77
2022-11-09T00:52:32.851Z,14.18
2022-11-09T00:55:03.493Z,13.02
2022-11-09T00:57:34.429Z,14.68
2022-11-09T01:00:01.789Z,14.75
2022-11-09T01:02:30.976Z,13.40
2022-11-09T01:04:58.338Z,13.18
2022-11-09T01:07:26.465Z,11.55
2022-11-09T01:09:53.788Z,14.10
2022-11-09T01:12:24.257Z,19.83
2022-11-09T01:14:52.012Z,14.40
2022-11-09T01:17:19.455Z,15.68
2022-11-09T01:19:47.813Z,19.60
2022-11-09T01:22:21.443Z,16.65
2022-11-09T01:24:48.910Z,15.63
2022-11-09T01:27:20.049Z,17.50
2022-11-09T01:29:47.523Z,18.95
2022-11-09T01:32:14.841Z,20.38
2022-11-09T01:34:42.324Z,18.35
2022-11-09T01:37:11.750Z,17.10
2022-11-09T01:39:39.120Z,14.55
2022-11-09T01:42:06.572Z,18.27
2022-11-09T01:44:37.402Z,18.52
2022-11-09T01:47:13.409Z,20.60
2022-11-09T01:49:54.651Z,20.33
2022-11-09T01:52:32.013Z,21.92
2022-11-09T01:55:07.717Z,19.20
2022-11-09T01:57:47.339Z,16.95
2022-11-09T02:00:16.146Z,17.90
2022-11-09T02:02:49.226Z,24.23
2022-11-09T02:05:23.643Z,18.00
2022-11-09T02:07:54.184Z,18.23
2022-11-09T02:10:35.782Z,20.83
2022-11-09T02:13:03.827Z,20.30
2022-11-09T02:15:45.499Z,17.33
2022-11-09T02:18:14.061Z,19.05
2022-11-09T02:20:55.996Z,19.77
2022-11-09T02:25:58.214Z,18.10
2022-11-09T02:28:27.596Z,17.05
2022-11-09T02:30:57.149Z,19.63
2022-11-09T02:33:26.733Z,15.80
2022-11-09T02:35:55.701Z,17.85
2022-11-09T02:38:23.458Z,17.35
2022-11-09T02:40:52.746Z,17.95
2022-11-09T02:43:22.222Z,16.10
2022-11-09T02:45:49.939Z,18.55
2022-11-09T02:48:17.491Z,16.98
2022-11-09T02:50:44.941Z,18.88
2022-11-09T02:53:12.260Z,16.33
2022-11-09T02:55:43.462Z,14.52
2022-11-09T02:58:11.055Z,19.73
2022-11-09T03:00:39.836Z,19.25
2022-11-09T03:03:07.469Z,21.08
2022-11-09T03:05:34.984Z,19.60
2022-11-09T03:08:02.638Z,20.83
2022-11-09T03:10:33.212Z,22.27
2022-11-09T03:13:01.465Z,26.52
2022-11-09T03:15:29.938Z,23.38
2022-11-09T03:17:57.470Z,22.13
2022-11-09T03:20:25.554Z,19.02
2022-11-09T03:22:57.843Z,21.67
2022-11-09T03:25:26.219Z,22.13
2022-11-09T03:27:58.716Z,23.33
2022-11-09T03:30:27.680Z,17.95
2022-11-09T03:33:00.365Z,21.00
2022-11-09T03:35:28.397Z,21.92
2022-11-09T03:37:55.903Z,20.65
2022-11-09T03:40:25.091Z,18.42
2022-11-09T03:42:52.520Z,19.33
2022-11-09T03:45:21.547Z,22.00
2022-11-09T03:47:48.923Z,20.52
2022-11-09T03:50:17.570Z,20.13
2022-11-09T03:52:46.540Z,22.73
2022-11-09T03:55:14.733Z,20.80
2022-11-09T03:57:43.973Z,20.48
2022-11-09T04:00:12.467Z,22.40
2022-11-09T04:02:39.999Z,18.00
2022-11-09T04:05:08.483Z,19.15
2022-11-09T04:07:36.149Z,24.67
2022-11-09T04:10:04.676Z,18.92
2022-11-09T04:12:32.114Z,19.27
2022-11-09T04:14:59.469Z,12.82
2022-11-09T04:17:26.830Z,13.43
2022-11-09T04:19:57.075Z,13.32
2022-11-09T04:22:24.469Z,12.65
2022-11-09T04:24:51.889Z,14.63
2022-11-09T04:27:19.303Z,12.90
2022-11-09T04:29:46.809Z,13.60
2022-11-09T04:32:14.269Z,16.70
2022-11-09T04:34:41.628Z,14.10
2022-11-09T04:37:10.443Z,21.30
2022-11-09T04:39:37.874Z,16.52
2022-11-09T04:42:05.311Z,14.07
2022-11-09T04:44:35.658Z,19.02
2022-11-09T04:47:02.963Z,14.93
2022-11-09T04:49:30.304Z,15.40
2022-11-09T04:51:57.666Z,14.45
2022-11-09T04:54:24.997Z,17.83
2022-11-09T04:56:52.369Z,16.60
2022-11-09T04:59:21.774Z,15.63
2022-11-09T05:01:49.071Z,18.58
2022-11-09T05:04:16.555Z,15.30
2022-11-09T05:06:44.007Z,15.52
2022-11-09T05:09:11.405Z,13.05
2022-11-09T05:11:38.822Z,21.33
2022-11-09T05:14:06.296Z,16.48
2022-11-09T05:16:33.955Z,15.27
2022-11-09T05:19:01.457Z,15.93
2022-11-09T05:21:28.821Z,17.77
2022-11-09T05:24:02.972Z,14.88
2022-11-09T05:26:39.160Z,16.30
2022-11-09T05:29:09.071Z,18.23
2022-11-09T05:31:37.723Z,16.35
2022-11-09T05:34:06.813Z,17.65
2022-11-09T05:36:34.521Z,18.92
2022-11-09T05:39:01.885Z,18.98
2022-11-09T05:41:29.406Z,20.70
2022-11-09T05:43:56.924Z,17.13
2022-11-09T05:46:25.264Z,18.67
2022-11-09T05:48:52.820Z,19.73
2022-11-09T05:51:20.270Z,23.42
2022-11-09T05:53:50.932Z,15.75
2022-11-09T05:56:18.533Z,19.40
2022-11-09T05:58:45.935Z,20.70
2022-11-09T06:01:21.044Z,18.50
2022-11-09T06:06:16.709Z,17.65
2022-11-09T06:08:44.118Z,16.58
2022-11-09T06:11:18.290Z,16.85
2022-11-09T06:13:50.560Z,17.20
2022-11-09T06:16:18.051Z,15.38
2022-11-09T06:18:45.417Z,24.35
2022-11-09T06:21:13.332Z,16.38
2022-11-09T06:23:40.914Z,19.45
2022-11-09T06:26:13.202Z,16.92
2022-11-09T06:28:41.848Z,16.77
2022-11-09T06:31:13.039Z,19.17
2022-11-09T06:33:40.570Z,20.92
2022-11-09T06:36:09.360Z,15.15
2022-11-09T06:38:36.960Z,16.65
2022-11-09T06:41:04.393Z,24.40
2022-11-09T06:43:31.817Z,20.48
2022-11-09T06:46:00.962Z,25.85
2022-11-09T06:48:28.403Z,20.83
2022-11-09T06:50:59.937Z,20.20
2022-11-09T06:53:29.853Z,18.45
2022-11-09T06:56:00.142Z,21.95
2022-11-09T06:58:30.578Z,23.63
2022-11-09T07:00:58.864Z,24.15
2022-11-09T07:03:26.690Z,19.90
2022-11-09T07:05:54.178Z,26.55
2022-11-09T07:08:21.500Z,20.50
2022-11-09T07:10:49.034Z,29.02
2022-11-09T07:13:16.870Z,19.23
2022-11-09T07:15:44.538Z,23.17
2022-11-09T07:18:14.899Z,20.73
2022-11-09T07:20:43.033Z,24.50
2022-11-09T07:23:10.464Z,25.65
2022-11-09T07:26:02.641Z,23.48
2022-11-09T07:28:30.224Z,25.35
2022-11-09T07:30:58.972Z,27.25
2022-11-09T07:33:27.061Z,30.33
2022-11-09T07:35:54.851Z,26.55
2022-11-09T07:38:22.234Z,23.30
2022-11-09T07:40:49.791Z,27.35
2022-11-09T07:43:17.719Z,28.90
2022-11-09T07:45:50.155Z,26.58
2022-11-09T07:48:17.814Z,30.20
2022-11-09T07:50:45.345Z,30.13
2022-11-09T07:53:14.485Z,26.25
2022-11-09T07:55:42.140Z,29.60
2022-11-09T07:58:12.883Z,35.90
2022-11-09T08:00:42.098Z,28.67
2022-11-09T08:03:10.317Z,32.05
2022-11-09T08:05:39.415Z,31.55
2022-11-09T08:08:10.557Z,35.28
2022-11-09T08:10:39.591Z,34.70
2022-11-09T08:13:13.555Z,39.58
2022-11-09T08:15:42.011Z,35.60
2022-11-09T08:18:16.037Z,31.33
2022-11-09T08:20:43.522Z,34.47
2022-11-09T08:23:16.680Z,32.95
2022-11-09T08:25:44.388Z,31.80
2022-11-09T08:28:14.794Z,34.03
2022-11-09T08:30:44.892Z,36.80
2022-11-09T08:33:13.375Z,37.47
2022-11-09T08:35:40.941Z,38.45
2022-11-09T08:38:08.408Z,39.13
2022-11-09T08:40:36.975Z,37.45
2022-11-09T08:43:07.374Z,45.08
2022-11-09T08:45:36.325Z,41.50
2022-11-09T08:48:04.951Z,34.75
2022-11-09T08:50:33.673Z,39.65
2022-11-09T08:53:01.846Z,38.97
2022-11-09T08:55:30.290Z,43.05
2022-11-09T08:58:00.105Z,38.53
2022-11-09T09:00:30.639Z,41.33
2022-11-09T09:02:58.300Z,40.90
2022-11-09T09:05:26.594Z,39.40
2022-11-09T09:07:53.997Z,42.72
2022-11-09T09:10:21.372Z,38.15
2022-11-09T09:12:48.713Z,44.00
2022-11-09T09:15:16.271Z,38.33
2022-11-09T09:17:44.005Z,37.53
2022-11-09T09:20:11.405Z,38.42
2022-11-09T09:22:39.979Z,42.45
2022-11-09T09:25:08.901Z,42.58
2022-11-09T09:27:36.367Z,42.63
2022-11-09T09:30:04.513Z,44.17
2022-11-09T09:32:32.225Z,39.47
2022-11-09T09:34:59.630Z,44.22
2022-11-09T09:37:27.118Z,44.58
2022-11-09T09:39:55.076Z,45.75
2022-11-09T09:42:35.714Z,41.10
2022-11-09T09:45:08.371Z,39.08
2022-11-09T09:47:44.630Z,44.90
2022-11-09T09:50:20.478Z,40.67
2022-11-09T09:53:22.739Z,38.85
2022-11-09T09:55:55.128Z,40.60
2022-11-09T09:58:29.643Z,43.95
2022-11-09T10:01:02.367Z,47.83
2022-11-09T10:03:29.758Z,42.55
2022-11-09T10:06:37.790Z,43.45
2022-11-09T10:09:42.781Z,48.17
2022-11-09T10:12:23.036Z,70.10
2022-11-09T10:15:31.839Z,50.20
2022-11-09T10:18:14.199Z,49.50
2022-11-09T10:20:52.932Z,48.20
2022-11-09T10:23:43.699Z,43.45
2022-11-09T10:26:27.495Z,44.58
2022-11-09T10:29:17.110Z,45.30
2022-11-09T10:31:47.355Z,43.22
2022-11-09T10:34:19.719Z,49.22
2022-11-09T10:37:10.269Z,45.67
2022-11-09T10:40:03.553Z,47.50
2022-11-09T10:42:53.516Z,44.50
2022-11-09T10:45:45.080Z,49.50
2022-11-09T10:48:34.638Z,48.42
2022-11-09T10:51:41.307Z,52.28
2022-11-09T10:54:38.402Z,46.08
2022-11-09T10:57:25.318Z,53.95
2022-11-09T11:00:19.352Z,47.83
2022-11-09T11:03:16.722Z,48.33
2022-11-09T11:06:14.609Z,48.20
2022-11-09T11:09:06.169Z,47.20
2022-11-09T11:12:15.886Z,51.30
2022-11-09T11:15:02.156Z,42.42
2022-11-09T11:17:48.185Z,44.92
2022-11-09T11:20:38.515Z,43.78
2022-11-09T11:23:26.380Z,44.40
2022-11-09T11:26:19.677Z,41.80
2022-11-09T11:29:24.862Z,48.22
2022-11-09T11:32:15.303Z,50.65
2022-11-09T11:35:03.607Z,47.38
2022-11-09T11:38:10.877Z,46.63
2022-11-09T11:41:18.537Z,46.58
2022-11-09T11:44:31.019Z,43.85
2022-11-09T11:47:28.524Z,49.00
2022-11-09T11:50:36.067Z,45.95
2022-11-09T11:53:49.364Z,41.40
2022-11-09T11:56:44.434Z,48.08
2022-11-09T12:00:10.385Z,48.50
2022-11-09T12:03:36.870Z,50.20
2022-11-09T12:06:44.486Z,49.67
2022-11-09T12:09:47.269Z,45.60
2022-11-09T12:12:56.552Z,47.67
2022-11-09T12:15:45.552Z,50.08
2022-11-09T12:19:12.919Z,50.05
2022-11-09T12:22:01.636Z,47.97
2022-11-09T12:25:09.671Z,48.78
2022-11-09T12:28:13.884Z,46.17
2022-11-09T12:31:12.468Z,46.17
2022-11-09T12:34:03.209Z,50.22
2022-11-09T12:37:02.608Z,49.17
2022-11-09T12:39:55.441Z,45.75
2022-11-09T12:42:49.547Z,45.13
2022-11-09T12:45:38.832Z,43.40
2022-11-09T12:48:32.879Z,46.28
2022-11-09T12:51:20.483Z,42.97
2022-11-09T12:54:12.148Z,38.58
2022-11-09T12:57:01.428Z,42.93
2022-11-09T12:59:56.756Z,39.17
2022-11-09T13:03:01.214Z,40.03
2022-11-09T13:05:49.845Z,43.83
2022-11-09T13:08:37.020Z,42.17
2022-11-09T13:11:40.635Z,42.63
2022-11-09T13:14:34.957Z,47.15
2022-11-09T13:17:26.518Z,37.90
2022-11-09T13:24:03.207Z,36.17
2022-11-09T13:26:57.148Z,41.90
2022-11-09T13:29:42.887Z,38.05
2022-11-09T13:32:33.194Z,36.95
2022-11-09T13:35:59.113Z,43.42
2022-11-09T13:38:46.515Z,36.65
2022-11-09T13:41:32.799Z,38.67
2022-11-09T13:44:25.879Z,34.97
2022-11-09T13:47:26.565Z,34.17
2022-11-09T13:50:19.617Z,37.58
2022-11-09T13:53:37.538Z,34.88
2022-11-09T13:56:40.880Z,36.03
2022-11-09T13:59:41.872Z,37.97
2022-11-09T14:02:27.718Z,38.83
2022-11-09T14:05:35.131Z,40.47
2022-11-09T14:08:28.757Z,37.53
2022-11-09T14:11:33.239Z,43.80
2022-11-09T14:14:37.286Z,37.95
2022-11-09T14:17:30.637Z,38.67
2022-11-09T14:20:39.229Z,39.50
2022-11-09T14:23:30.611Z,44.58
2022-11-09T14:26:22.211Z,36.83
2022-11-09T14:29:20.600Z,41.17
2022-11-09T14:32:26.663Z,37.33
2022-11-09T14:35:21.966Z,34.75
2022-11-09T14:38:26.262Z,33.90
2022-11-09T14:41:26.875Z,39.90
2022-11-09T14:44:50.883Z,39.58
2022-11-09T14:47:39.565Z,39.47
2022-11-09T14:50:30.857Z,36.65
2022-11-09T14:53:23.589Z,34.97
2022-11-09T14:56:16.632Z,36.28
2022-11-09T14:59:05.745Z,40.85
2022-11-09T15:02:03.185Z,31.77
2022-11-09T15:05:30.503Z,34.53
2022-11-09T15:08:21.713Z,29.42
2022-11-09T15:11:11.264Z,33.05
2022-11-09T15:13:57.741Z,31.98
2022-11-09T15:16:44.073Z,30.88
2022-11-09T15:19:33.486Z,27.02
2022-11-09T15:22:58.058Z,30.55
2022-11-09T15:25:47.050Z,32.15
2022-11-09T15:28:35.709Z,23.05
2022-11-09T15:31:22.788Z,22.13
2022-11-09T15:34:23.191Z,22.25
2022-11-09T15:37:38.503Z,20.60
2022-11-09T15:40:25.271Z,17.58
2022-11-09T15:43:11.327Z,22.38
2022-11-09T15:46:00.409Z,20.95
2022-11-09T15:48:46.642Z,20.45
2022-11-09T15:51:33.018Z,18.33
2022-11-09T15:54:19.433Z,19.13
2022-11-09T15:57:07.975Z,18.00
2022-11-09T15:59:53.909Z,18.10
2022-11-09T16:02:40.282Z,17.23
2022-11-09T16:05:27.878Z,18.27
2022-11-09T16:08:14.247Z,20.30
2022-11-09T16:11:04.713Z,16.00
2022-11-09T16:13:50.409Z,20.75
2022-11-09T16:16:36.618Z,18.27
2022-11-09T16:19:22.573Z,23.23
2022-11-09T16:22:09.917Z,24.83
2022-11-09T16:24:57.047Z,20.35
2022-11-09T16:27:50.083Z,18.95
2022-11-09T16:30:36.443Z,21.88
2022-11-09T16:33:22.645Z,22.17
2022-11-09T16:36:15.226Z,21.50
2022-11-09T16:39:06.191Z,21.73
2022-11-09T16:41:53.457Z,25.60
2022-11-09T16:44:43.013Z,25.45
2022-11-09T16:47:29.387Z,22.02
2022-11-09T16:50:15.809Z,23.80
2022-11-09T16:53:02.014Z,28.30
2022-11-09T16:55:50.920Z,20.25
2022-11-09T16:58:37.024Z,19.15
2022-11-09T17:01:23.717Z,22.17
2022-11-09T17:04:09.744Z,19.02
2022-11-09T17:06:55.539Z,26.30
2022-11-09T17:09:41.579Z,24.08
2022-11-09T17:12:30.232Z,21.80
2022-11-09T17:15:17.123Z,20.85
2022-11-09T17:18:03.038Z,25.00
2022-11-09T17:20:50.739Z,19.67
2022-11-09T17:23:36.980Z,20.58
2022-11-09T17:26:23.637Z,20.65
2022-11-09T17:29:09.993Z,23.80
2022-11-09T17:31:55.882Z,23.40
2022-11-09T17:34:41.888Z,19.60
2022-11-09T17:37:28.767Z,20.67
2022-11-09T17:40:14.695Z,18.10
2022-11-09T17:43:00.675Z,23.00
2022-11-09T17:45:46.539Z,19.10
2022-11-09T17:48:33.937Z,21.13
2022-11-09T17:51:20.901Z,23.20
2022-11-09T17:54:09.490Z,21.58
2022-11-09T17:56:55.394Z,21.13
2022-11-09T17:59:41.365Z,20.83
2022-11-09T18:02:27.264Z,19.75
2022-11-09T18:05:15.765Z,19.48
2022-11-09T18:08:01.842Z,23.80
2022-11-09T18:10:50.079Z,18.92
2022-11-09T18:13:39.297Z,21.38
2022-11-09T18:16:25.497Z,19.92
2022-11-09T18:19:15.262Z,24.67
2022-11-09T18:22:03.052Z,23.25
2022-11-09T18:24:49.993Z,24.42
2022-11-09T18:27:35.791Z,22.35
2022-11-09T18:30:24.856Z,28.75
2022-11-09T18:33:10.635Z,24.30
2022-11-09T18:36:15.635Z,25.42
2022-11-09T18:39:03.267Z,24.63
2022-11-09T18:41:49.140Z,23.73
2022-11-09T18:44:35.524Z,27.73
2022-11-09T18:47:21.212Z,22.52
2022-11-09T18:50:08.012Z,24.10
2022-11-09T18:52:53.744Z,25.05
2022-11-09T18:55:39.846Z,24.67
2022-11-09T18:58:26.379Z,27.25
2022-11-09T19:01:12.526Z,28.15
2022-11-09T19:04:01.360Z,27.25
2022-11-09T19:06:47.691Z,26.95
2022-11-09T19:09:38.785Z,26.95
2022-11-09T19:12:26.512Z,27.38
2022-11-09T19:15:12.697Z,29.88
2022-11-09T19:17:58.674Z,28.60
2022-11-09T19:20:44.671Z,31.70
2022-11-09T19:23:34.368Z,30.80
2022-11-09T19:26:22.091Z,31.05
2022-11-09T19:29:09.537Z,33.00
2022-11-09T19:31:55.316Z,36.75
2022-11-09T19:34:42.852Z,32.90
2022-11-09T19:37:29.190Z,39.40
2022-11-09T19:40:15.373Z,40.15
2022-11-09T19:43:01.331Z,34.72
2022-11-09T19:45:46.890Z,35.63
2022-11-09T19:48:35.000Z,34.20
2022-11-09T19:51:21.060Z,33.42
2022-11-09T19:54:07.687Z,30.55
2022-11-09T19:56:54.029Z,32.20
2022-11-09T19:59:40.226Z,28.77
2022-11-09T20:02:26.067Z,31.48
2022-11-09T20:05:11.876Z,30.27
2022-11-09T20:07:58.080Z,33.40
2022-11-09T20:10:43.889Z,31.02
2022-11-09T20:13:29.750Z,27.92
2022-11-09T20:16:15.664Z,34.92
2022-11-09T20:19:04.207Z,31.80
2022-11-09T20:21:50.588Z,27.92
2022-11-09T20:24:36.630Z,27.88
2022-11-09T20:27:24.322Z,28.00
2022-11-09T20:30:12.482Z,30.27
2022-11-09T20:32:58.760Z,31.63
2022-11-09T20:35:52.355Z,30.05
2022-11-09T20:38:38.757Z,27.67
2022-11-09T20:41:25.719Z,29.15
2022-11-09T20:44:12.065Z,29.50
2022-11-09T20:46:57.798Z,31.13
2022-11-09T20:49:44.163Z,32.70
2022-11-09T20:52:30.585Z,32.67
2022-11-09T20:55:16.686Z,32.25
2022-11-09T20:58:02.500Z,31.38
2022-11-09T21:00:48.547Z,37.45
2022-11-09T21:03:35.086Z,37.35
2022-11-09T21:06:22.038Z,35.20
2022-11-09T21:09:07.902Z,35.40
2022-11-09T21:12:12.120Z,36.75
2022-11-09T21:14:58.278Z,40.05
2022-11-09T21:17:44.429Z,31.90
2022-11-09T21:20:30.420Z,38.95
2022-11-09T21:23:16.148Z,35.10
2022-11-09T21:26:21.553Z,35.80
2022-11-09T21:29:40.303Z,36.80
2022-11-09T21:32:26.538Z,37.33
2022-11-09T21:35:12.406Z,37.03
2022-11-09T21:37:58.386Z,41.53
2022-11-09T21:40:44.486Z,39.35
2022-11-09T21:43:30.370Z,39.22
2022-11-09T21:46:16.410Z,40.78
2022-11-09T21:49:02.926Z,43.60
2022-11-09T21:51:49.161Z,42.72
2022-11-09T21:54:35.793Z,39.03
2022-11-09T21:57:21.846Z,37.42
2022-11-09T22:00:09.333Z,38.47
2022-11-09T22:02:55.130Z,33.17
2022-11-09T22:05:41.000Z,41.85
2022-11-09T22:08:26.976Z,35.33
2022-11-09T22:11:16.268Z,39.75
2022-11-09T22:14:20.674Z,40.45
2022-11-09T22:17:10.327Z,34.53
2022-11-09T22:20:14.668Z,37.55
2022-11-09T22:23:05.558Z,35.35
2022-11-09T22:25:51.236Z,34.80
2022-11-09T22:28:37.947Z,36.85
2022-11-09T22:31:24.057Z,29.83
2022-11-09T22:34:09.909Z,35.28
2022-11-09T22:36:56.041Z,34.05
2022-11-09T22:39:47.069Z,31.48
2022-11-09T22:42:33.477Z,32.77
2022-11-09T22:45:20.655Z,32.90
2022-11-09T22:48:07.164Z,31.83
2022-11-09T22:50:53.366Z,34.70
2022-11-09T22:53:39.543Z,34.75
2022-11-09T22:56:25.987Z,30.98
2022-11-09T22:59:11.844Z,31.65
2022-11-09T23:01:57.975Z,31.90
2022-11-09T23:04:43.912Z,29.15
2022-11-09T23:07:31.621Z,32.50
2022-11-09T23:10:17.762Z,28.73
2022-11-09T23:13:04.665Z,29.20
2022-11-09T23:15:56.153Z,31.35
2022-11-09T23:18:57.440Z,27.97
2022-11-09T23:21:43.559Z,31.58
2022-11-09T23:24:47.790Z,35.58
2022-11-09T23:27:33.506Z,30.48
2022-11-09T23:30:20.174Z,27.23
2022-11-09T23:33:06.187Z,27.08
2022-11-09T23:35:52.255Z,27.85
2022-11-09T23:38:39.566Z,27.83
2022-11-09T23:41:25.622Z,27.02
2022-11-09T23:44:11.859Z,23.98
2022-11-09T23:46:57.691Z,23.00
2022-11-09T23:49:43.318Z,21.63
2022-11-09T23:52:29.137Z,25.65
2022-11-09T23:55:14.855Z,23.05
2022-11-09T23:58:02.385Z,25.17
